Pertusola — IBER — position and weather

sailwx.info

Track history (hours):
 
Tides and Currents Weather Stations Pressure Air Temp Water Temp Dewpoint Dewpoint Depression Visibility Wind Speed Wind Dir Waves Ship Positions

Pertusola

Last reported at 2015-Jan-27 18:10 UTC. Time now 2015-Jan-30 11:00 UTC.
Position N 46°07' W 002°45'.

Length 145 m; draft 8.1 m.

Type: Ship (hazmat cat A). MMSI: 247399000.

Date/timePositionNaut miles runAvg speedWind from/ knotsBaromVisibWave heightAir tempDewpointWater temp
2015-Jan-27 18:10N 46°07' W 002°45'13913.9
2015-Jan-27 08:09N 47°47' W 005°05'210 9.9
2015-Jan-26 11:05N 50°17' W 001°23'1010.9
2015-Jan-26 10:09N 50°20' W 001°07'2813.7
2015-Jan-26 08:06N 50°28' W 000°25'2214.4
2015-Jan-26 06:33N 50°33' E 000°09'1414.0
2015-Jan-26 05:33N 50°37' E 000°30'1313.0
2015-Jan-26 04:33N 50°43' E 000°48'1312.0
2015-Jan-26 03:31N 50°50' E 001°04'1211.8
2015-Jan-26 02:32N 50°59' E 001°17'1312.9
2015-Jan-26 01:34N 51°06' E 001°32'1515.1
2015-Jan-26 00:33N 51°18' E 001°49'1615.7
2015-Jan-25 23:34N 51°31' E 002°01'5212.9
2015-Jan-25 19:30N 52°17' E 002°42'1111.4
2015-Jan-25 18:31N 52°27' E 002°52'1511.4
2015-Jan-25 17:15N 52°40' E 003°02'1112.2
2015-Jan-25 16:19N 52°50' E 003°11'1213.2
2015-Jan-25 15:25N 53°01' E 003°19'1813.9
2015-Jan-25 14:05N 53°18' E 003°28'7312.7
2015-Jan-25 08:22N 54°17' E 004°41'33011.9
2015-Jan-24 04:31N 59°03' E 009°43'5 0.3
2015-Jan-23 13:21N 59°07' E 009°38'5 4.7
2015-Jan-23 12:21N 59°03' E 009°43'3412.0
2015-Jan-23 09:29N 58°31' E 010°09'1314.6
2015-Jan-23 08:34N 58°19' E 010°20'1414.4
2015-Jan-23 07:33N 58°06' E 010°32'1414.5
2015-Jan-23 06:33N 57°53' E 010°44'10 8.6
2015-Jan-23 05:27N 57°44' E 010°46'6 6.3
2015-Jan-23 04:33N 57°42' E 010°57'1413.7
2015-Jan-23 03:33N 57°33' E 011°16'1414.5
2015-Jan-23 02:33N 57°22' E 011°31'1514.6
2015-Jan-23 01:33N 57°08' E 011°40'1414.5
2015-Jan-23 00:33N 56°54' E 011°48'13711.4
2015-Jan-22 12:32N 54°40' E 010°60'1414.0
2015-Jan-22 11:33N 54°33' E 011°20'1414.1
2015-Jan-22 10:33N 54°28' E 011°42'1413.6
2015-Jan-22 09:33N 54°26' E 012°06'1313.0
2015-Jan-22 08:33N 54°38' E 012°17'1313.3
2015-Jan-22 07:33N 54°45' E 012°36'1312.8
2015-Jan-22 06:33N 54°50' E 012°57'1513.2
2015-Jan-22 05:26N 54°55' E 013°21'1213.5
2015-Jan-22 04:33N 54°59' E 013°40'1313.1
2015-Jan-22 03:33N 55°04' E 014°02'1312.8
2015-Jan-22 02:33N 55°13' E 014°16'1413.8
2015-Jan-22 01:33N 55°24' E 014°31'1313.4
2015-Jan-22 00:33N 55°32' E 014°51'1313.0
2015-Jan-21 23:33N 55°37' E 015°12'  
2015-Jan-19 10:33N 55°36' E 015°26'1515.4
2015-Jan-19 09:33N 55°30' E 015°01'1515.0
2015-Jan-19 08:33N 55°23' E 014°38'1615.5
2015-Jan-19 07:33N 55°10' E 014°21'1515.0
2015-Jan-19 06:33N 54°60' E 014°02'1515.0
2015-Jan-19 05:33N 54°55' E 013°37'1514.6
2015-Jan-19 04:33N 54°51' E 013°13'1414.4
2015-Jan-19 03:33N 54°46' E 012°49'1414.2
2015-Jan-19 02:33N 54°39' E 012°28'1413.9
2015-Jan-19 01:33N 54°28' E 012°14'1413.9
2015-Jan-19 00:33N 54°15' E 012°05'6 6.0
2015-Jan-18 23:33N 54°10' E 012°08'0 0.0
2015-Jan-18 22:30N 54°10' E 012°08'0 0.0
2015-Jan-18 21:27N 54°10' E 012°08'0 0.0
2015-Jan-18 20:24N 54°10' E 012°08'0 0.0
2015-Jan-18 19:33N 54°10' E 012°08'0 0.0
2015-Jan-18 18:33N 54°10' E 012°08'0 0.0
2015-Jan-18 17:27N 54°10' E 012°08'0 0.0
2015-Jan-18 16:27N 54°10' E 012°08'0 0.0
2015-Jan-18 15:33N 54°10' E 012°08'0 0.0
2015-Jan-18 14:24N 54°10' E 012°08'0 0.0
2015-Jan-18 13:33N 54°10' E 012°08'0 0.0
2015-Jan-18 12:06N 54°10' E 012°08'0 0.0
2015-Jan-18 10:33N 54°10' E 012°08'0 0.0
2015-Jan-18 09:33N 54°10' E 012°08'0 0.0
2015-Jan-18 08:27N 54°10' E 012°08'0 0.0
2015-Jan-18 07:33N 54°10' E 012°08'0 0.0
2015-Jan-18 06:33N 54°10' E 012°08'0 0.1
2015-Jan-18 05:33N 54°10' E 012°08'5 4.6
2015-Jan-18 04:33N 54°14' E 012°04'7 7.1
2015-Jan-18 03:33N 54°19' E 011°56'1313.2
2015-Jan-18 02:33N 54°27' E 011°38'1414.1
2015-Jan-18 01:33N 54°33' E 011°16'2713.7
2015-Jan-17 23:33N 54°32' E 010°29'1111.2
2015-Jan-17 22:33N 54°26' E 010°13'5 4.6
2015-Jan-17 21:33N 54°22' E 010°08'5 4.5
2015-Jan-17 20:33N 54°21' E 010°01'5 4.8
2015-Jan-17 19:33N 54°21' E 009°52'5 4.7
2015-Jan-17 18:33N 54°20' E 009°45'  
Track history (hours):
 
Tides and Currents Weather Stations Pressure Air Temp Water Temp Dewpoint Dewpoint Depression Visibility Wind Speed Wind Dir Waves Ship Positions

Pertusola

Last reported at 2015-Jan-27 18:10 UTC. Time now 2015-Jan-30 11:00 UTC.
Position N 46°07' W 002°45'.

Length 145 m; draft 8.1 m.

Type: Ship (hazmat cat A). MMSI: 247399000.

Date/timePositionNaut miles runAvg speedWind from/ knotsBaromVisibWave heightAir tempDewpointWater temp
2015-Jan-27 18:10N 46°07' W 002°45'13913.9
2015-Jan-27 08:09N 47°47' W 005°05'210 9.9
2015-Jan-26 11:05N 50°17' W 001°23'1010.9
2015-Jan-26 10:09N 50°20' W 001°07'2813.7
2015-Jan-26 08:06N 50°28' W 000°25'2214.4
2015-Jan-26 06:33N 50°33' E 000°09'1414.0
2015-Jan-26 05:33N 50°37' E 000°30'1313.0
2015-Jan-26 04:33N 50°43' E 000°48'1312.0
2015-Jan-26 03:31N 50°50' E 001°04'1211.8
2015-Jan-26 02:32N 50°59' E 001°17'1312.9
2015-Jan-26 01:34N 51°06' E 001°32'1515.1
2015-Jan-26 00:33N 51°18' E 001°49'1615.7
2015-Jan-25 23:34N 51°31' E 002°01'5212.9
2015-Jan-25 19:30N 52°17' E 002°42'1111.4
2015-Jan-25 18:31N 52°27' E 002°52'1511.4
2015-Jan-25 17:15N 52°40' E 003°02'1112.2
2015-Jan-25 16:19N 52°50' E 003°11'1213.2
2015-Jan-25 15:25N 53°01' E 003°19'1813.9
2015-Jan-25 14:05N 53°18' E 003°28'7312.7
2015-Jan-25 08:22N 54°17' E 004°41'33011.9
2015-Jan-24 04:31N 59°03' E 009°43'5 0.3
2015-Jan-23 13:21N 59°07' E 009°38'5 4.7
2015-Jan-23 12:21N 59°03' E 009°43'3412.0
2015-Jan-23 09:29N 58°31' E 010°09'1314.6
2015-Jan-23 08:34N 58°19' E 010°20'1414.4
2015-Jan-23 07:33N 58°06' E 010°32'1414.5
2015-Jan-23 06:33N 57°53' E 010°44'10 8.6
2015-Jan-23 05:27N 57°44' E 010°46'6 6.3
2015-Jan-23 04:33N 57°42' E 010°57'1413.7
2015-Jan-23 03:33N 57°33' E 011°16'1414.5
2015-Jan-23 02:33N 57°22' E 011°31'1514.6
2015-Jan-23 01:33N 57°08' E 011°40'1414.5
2015-Jan-23 00:33N 56°54' E 011°48'13711.4
2015-Jan-22 12:32N 54°40' E 010°60'1414.0
2015-Jan-22 11:33N 54°33' E 011°20'1414.1
2015-Jan-22 10:33N 54°28' E 011°42'1413.6
2015-Jan-22 09:33N 54°26' E 012°06'1313.0
2015-Jan-22 08:33N 54°38' E 012°17'1313.3
2015-Jan-22 07:33N 54°45' E 012°36'1312.8
2015-Jan-22 06:33N 54°50' E 012°57'1513.2
2015-Jan-22 05:26N 54°55' E 013°21'1213.5
2015-Jan-22 04:33N 54°59' E 013°40'1313.1
2015-Jan-22 03:33N 55°04' E 014°02'1312.8
2015-Jan-22 02:33N 55°13' E 014°16'1413.8
2015-Jan-22 01:33N 55°24' E 014°31'1313.4
2015-Jan-22 00:33N 55°32' E 014°51'1313.0
2015-Jan-21 23:33N 55°37' E 015°12'  
2015-Jan-19 10:33N 55°36' E 015°26'1515.4
2015-Jan-19 09:33N 55°30' E 015°01'1515.0
2015-Jan-19 08:33N 55°23' E 014°38'1615.5
2015-Jan-19 07:33N 55°10' E 014°21'1515.0
2015-Jan-19 06:33N 54°60' E 014°02'1515.0
2015-Jan-19 05:33N 54°55' E 013°37'1514.6
2015-Jan-19 04:33N 54°51' E 013°13'1414.4
2015-Jan-19 03:33N 54°46' E 012°49'1414.2
2015-Jan-19 02:33N 54°39' E 012°28'1413.9
2015-Jan-19 01:33N 54°28' E 012°14'1413.9
2015-Jan-19 00:33N 54°15' E 012°05'6 6.0
2015-Jan-18 23:33N 54°10' E 012°08'0 0.0
2015-Jan-18 22:30N 54°10' E 012°08'0 0.0
2015-Jan-18 21:27N 54°10' E 012°08'0 0.0
2015-Jan-18 20:24N 54°10' E 012°08'0 0.0
2015-Jan-18 19:33N 54°10' E 012°08'0 0.0
2015-Jan-18 18:33N 54°10' E 012°08'0 0.0
2015-Jan-18 17:27N 54°10' E 012°08'0 0.0
2015-Jan-18 16:27N 54°10' E 012°08'0 0.0
2015-Jan-18 15:33N 54°10' E 012°08'0 0.0
2015-Jan-18 14:24N 54°10' E 012°08'0 0.0
2015-Jan-18 13:33N 54°10' E 012°08'0 0.0
2015-Jan-18 12:06N 54°10' E 012°08'0 0.0
2015-Jan-18 10:33N 54°10' E 012°08'0 0.0
2015-Jan-18 09:33N 54°10' E 012°08'0 0.0
2015-Jan-18 08:27N 54°10' E 012°08'0 0.0
2015-Jan-18 07:33N 54°10' E 012°08'0 0.0
2015-Jan-18 06:33N 54°10' E 012°08'0 0.1
2015-Jan-18 05:33N 54°10' E 012°08'5 4.6
2015-Jan-18 04:33N 54°14' E 012°04'7 7.1
2015-Jan-18 03:33N 54°19' E 011°56'1313.2
2015-Jan-18 02:33N 54°27' E 011°38'1414.1
2015-Jan-18 01:33N 54°33' E 011°16'2713.7
2015-Jan-17 23:33N 54°32' E 010°29'1111.2
2015-Jan-17 22:33N 54°26' E 010°13'5 4.6
2015-Jan-17 21:33N 54°22' E 010°08'5 4.5
2015-Jan-17 20:33N 54°21' E 010°01'5 4.8
2015-Jan-17 19:33N 54°21' E 009°52'5 4.7
2015-Jan-17 18:33N 54°20' E 009°45'  

Dump ship's entire track history